Time;durP1;ratioP1;P1;durP2;ratioP2;P2;SDS_P1;SDS_P2;PMS_P1;PMS_P2;Temp;Humidity;BMP_temperature;BMP_pressure;BME280_temperature;BME280_humidity;BME280_pressure;Samples;Min_cycle;Max_cycle;Signal;HPM_P1;HPM_P2
2023/06/22 00:00:14;;;;;;;;;1.00;1.00;;;;;;;;5061382;28;8855;-79
2023/06/22 00:02:41;;;;;;;;;3.20;3.20;;;;;;;;5056757;28;8819;-81
2023/06/22 00:05:09;;;;;;;;;3.00;3.00;;;;;;;;5051858;28;8934;-79
2023/06/22 00:07:37;;;;;;;;;5.00;5.00;;;;;;;;5053987;28;8972;-78
2023/06/22 00:10:06;;;;;;;;;1.60;1.60;;;;;;;;5055894;28;8861;-78
2023/06/22 00:12:33;;;;;;;;;3.20;2.00;;;;;;;;5062029;28;8873;-80
2023/06/22 00:15:00;;;;;;;;;2.80;2.80;;;;;;;;5051579;28;8849;-76
2023/06/22 00:17:27;;;;;;;;;5.40;3.40;;;;;;;;5060030;28;8827;-79
2023/06/22 00:19:55;;;;;;;;;3.00;3.00;;;;;;;;5051675;28;8931;-78
2023/06/22 00:22:28;;;;;;;;;2.00;2.00;;;;;;;;5060714;28;8859;-78
2023/06/22 00:24:57;;;;;;;;;2.00;2.00;;;;;;;;5061131;28;8980;-78
2023/06/22 00:27:24;;;;;;;;;3.60;2.60;;;;;;;;5053235;28;8859;-82
2023/06/22 00:29:52;;;;;;;;;7.00;4.40;;;;;;;;5052950;28;8857;-79
2023/06/22 00:32:19;;;;;;;;;3.20;3.20;;;;;;;;5061369;28;8809;-85
2023/06/22 00:34:46;;;;;;;;;2.80;2.80;;;;;;;;5055666;28;8853;-78
2023/06/22 00:37:13;;;;;;;;;3.00;3.00;;;;;;;;5052967;28;8990;-83
2023/06/22 00:39:40;;;;;;;;;2.80;2.80;;;;;;;;5065540;28;9018;-80
2023/06/22 00:42:12;;;;;;;;;4.00;4.00;;;;;;;;5060368;28;8993;-83
2023/06/22 00:44:40;;;;;;;;;3.80;3.40;;;;;;;;5052113;28;9013;-81
2023/06/22 00:47:08;;;;;;;;;2.00;2.00;;;;;;;;5057024;28;8884;-81
2023/06/22 00:49:35;;;;;;;;;5.40;5.40;;;;;;;;5048491;28;8907;-80
2023/06/22 00:52:03;;;;;;;;;4.60;4.60;;;;;;;;5050729;28;8904;-81
2023/06/22 00:54:31;;;;;;;;;4.40;4.20;;;;;;;;5051303;28;8865;-84
2023/06/22 00:56:59;;;;;;;;;4.80;4.80;;;;;;;;5050523;28;9687;-83
2023/06/22 00:59:27;;;;;;;;;3.60;3.60;;;;;;;;5050748;28;8873;-84
2023/06/22 01:01:55;;;;;;;;;4.40;2.60;;;;;;;;5045430;28;8839;-80
2023/06/22 01:04:25;;;;;;;;;3.80;3.80;;;;;;;;5044488;28;8980;-79
2023/06/22 01:06:57;;;;;;;;;2.80;2.80;;;;;;;;5051241;28;9569;-79
2023/06/22 01:09:30;;;;;;;;;2.40;2.40;;;;;;;;5050570;28;8842;-83
2023/06/22 01:12:01;;;;;;;;;5.60;4.00;;;;;;;;5049819;28;8857;-82
2023/06/22 01:14:34;;;;;;;;;4.00;4.00;;;;;;;;5050347;28;9683;-84
2023/06/22 01:17:01;;;;;;;;;4.60;4.60;;;;;;;;5049545;28;8999;-83
2023/06/22 01:19:44;;;;;;;;;4.00;4.00;;;;;;;;5063319;28;9299;-82
2023/06/22 01:22:15;;;;;;;;;5.60;4.80;;;;;;;;5053962;28;8826;-80
2023/06/22 01:24:51;;;;;;;;;5.60;5.60;;;;;;;;5064240;28;8843;-80
2023/06/22 01:27:41;;;;;;;;;4.00;3.40;;;;;;;;5055294;28;8850;-86
2023/06/22 01:30:10;;;;;;;;;3.60;3.60;;;;;;;;5053622;28;8845;-85
2023/06/22 01:32:40;;;;;;;;;4.20;4.20;;;;;;;;5055354;28;8892;-86
2023/06/22 01:35:09;;;;;;;;;6.40;6.40;;;;;;;;5051487;28;8888;-80
2023/06/22 01:37:38;;;;;;;;;3.80;3.80;;;;;;;;5049855;28;8869;-84
2023/06/22 01:40:07;;;;;;;;;4.40;4.40;;;;;;;;5050359;28;8851;-83
2023/06/22 01:42:36;;;;;;;;;5.00;5.00;;;;;;;;5054943;28;8853;-89
2023/06/22 01:45:03;;;;;;;;;3.00;3.00;;;;;;;;5050866;28;8865;-87
2023/06/22 01:47:32;;;;;;;;;6.20;5.00;;;;;;;;5049502;28;8876;-86
2023/06/22 01:50:00;;;;;;;;;4.60;4.60;;;;;;;;5054121;28;8873;-82
2023/06/22 01:52:27;;;;;;;;;3.60;3.60;;;;;;;;5047702;28;8903;-84
2023/06/22 01:54:55;;;;;;;;;5.00;4.40;;;;;;;;5048535;28;8869;-81
2023/06/22 01:57:22;;;;;;;;;3.60;3.60;;;;;;;;5049098;28;8861;-79
2023/06/22 01:59:54;;;;;;;;;3.00;3.00;;;;;;;;5050043;28;8950;-81
2023/06/22 02:02:26;;;;;;;;;3.80;3.80;;;;;;;;5050419;28;8885;-81
2023/06/22 02:04:59;;;;;;;;;6.00;5.00;;;;;;;;5050076;28;8853;-81
2023/06/22 02:07:32;;;;;;;;;5.20;3.60;;;;;;;;5059702;28;8985;-77
2023/06/22 02:09:59;;;;;;;;;5.40;5.40;;;;;;;;5056907;28;8932;-80
2023/06/22 02:12:28;;;;;;;;;4.00;4.00;;;;;;;;5059413;28;8857;-78
2023/06/22 02:14:55;;;;;;;;;5.80;4.00;;;;;;;;5049240;28;8837;-80
2023/06/22 02:17:23;;;;;;;;;4.80;4.00;;;;;;;;5048939;28;9047;-83
2023/06/22 02:19:50;;;;;;;;;5.00;5.00;;;;;;;;5050622;28;8999;-81
2023/06/22 02:22:18;;;;;;;;;4.80;4.80;;;;;;;;5055696;28;9622;-83
2023/06/22 02:24:46;;;;;;;;;4.00;3.60;;;;;;;;5057558;28;8853;-81
2023/06/22 02:27:13;;;;;;;;;5.80;4.20;;;;;;;;5058026;28;8973;-84
2023/06/22 02:29:40;;;;;;;;;4.60;4.60;;;;;;;;5059010;28;8873;-80
2023/06/22 02:32:08;;;;;;;;;4.80;4.80;;;;;;;;5061905;28;8796;-80
2023/06/22 02:34:37;;;;;;;;;4.40;4.40;;;;;;;;5049684;28;9672;-78
2023/06/22 02:37:05;;;;;;;;;6.20;5.20;;;;;;;;5049155;28;8882;-82
2023/06/22 02:39:34;;;;;;;;;5.00;5.00;;;;;;;;5059986;28;9718;-78
2023/06/22 02:42:01;;;;;;;;;5.40;5.00;;;;;;;;5057186;28;8849;-81
2023/06/22 02:44:28;;;;;;;;;7.40;4.60;;;;;;;;5058144;28;8926;-79
2023/06/22 02:46:56;;;;;;;;;7.00;7.00;;;;;;;;5057592;28;8863;-79
2023/06/22 02:49:23;;;;;;;;;5.40;5.40;;;;;;;;5054547;28;9630;-78
2023/06/22 02:51:50;;;;;;;;;6.60;6.60;;;;;;;;5060718;28;8864;-78
2023/06/22 02:54:18;;;;;;;;;4.00;4.00;;;;;;;;5065945;28;8839;-78
2023/06/22 02:56:47;;;;;;;;;7.40;7.40;;;;;;;;5063098;28;8903;-81
2023/06/22 02:59:15;;;;;;;;;5.60;5.60;;;;;;;;5060590;28;8861;-78
2023/06/22 03:01:42;;;;;;;;;7.80;6.80;;;;;;;;5050814;28;9163;-79
2023/06/22 03:04:13;;;;;;;;;6.60;6.60;;;;;;;;5051460;28;8860;-78
2023/06/22 03:06:41;;;;;;;;;9.60;8.00;;;;;;;;5048002;28;8858;-82
2023/06/22 03:09:11;;;;;;;;;5.60;5.60;;;;;;;;5051712;28;8841;-86
2023/06/22 03:11:38;;;;;;;;;10.20;10.20;;;;;;;;5053191;28;8866;-82
2023/06/22 03:14:06;;;;;;;;;11.20;9.20;;;;;;;;5058276;28;8938;-79
2023/06/22 03:16:34;;;;;;;;;7.00;7.00;;;;;;;;5054288;28;8876;-79
2023/06/22 03:19:03;;;;;;;;;9.80;8.20;;;;;;;;5053592;28;8934;-84
2023/06/22 03:21:31;;;;;;;;;10.80;9.20;;;;;;;;5055007;28;9662;-78
2023/06/22 03:23:59;;;;;;;;;9.20;9.20;;;;;;;;5047054;28;8944;-78
2023/06/22 03:26:26;;;;;;;;;11.60;8.40;;;;;;;;5057654;28;8977;-78
2023/06/22 03:28:54;;;;;;;;;7.80;7.80;;;;;;;;5057832;28;8876;-77
2023/06/22 03:31:24;;;;;;;;;4.00;4.00;;;;;;;;5057209;28;8807;-77
2023/06/22 03:33:52;;;;;;;;;9.20;9.20;;;;;;;;5067672;28;8870;-80
2023/06/22 03:36:20;;;;;;;;;12.20;12.20;;;;;;;;5061602;28;8951;-79
2023/06/22 03:38:47;;;;;;;;;10.00;10.00;;;;;;;;5062878;28;8866;-79
2023/06/22 03:41:15;;;;;;;;;11.40;9.60;;;;;;;;5069704;28;8851;-80
2023/06/22 03:43:42;;;;;;;;;12.20;9.20;;;;;;;;5057815;28;8871;-80
2023/06/22 03:46:10;;;;;;;;;10.00;10.00;;;;;;;;5060024;28;8964;-79
2023/06/22 03:48:39;;;;;;;;;10.60;10.60;;;;;;;;5044296;28;8976;-80
2023/06/22 03:51:07;;;;;;;;;13.80;12.80;;;;;;;;5058452;28;8871;-80
2023/06/22 03:53:34;;;;;;;;;16.60;15.20;;;;;;;;5054652;28;8969;-78
2023/06/22 03:56:01;;;;;;;;;13.80;13.80;;;;;;;;5052982;28;8848;-78
2023/06/22 03:58:32;;;;;;;;;15.00;13.60;;;;;;;;5050594;28;8857;-79
2023/06/22 04:01:01;;;;;;;;;15.50;15.50;;;;;;;;5048861;28;8891;-79
2023/06/22 04:03:28;;;;;;;;;17.25;17.25;;;;;;;;5046464;28;9012;-88
2023/06/22 04:05:57;;;;;;;;;16.75;15.00;;;;;;;;5055141;28;8859;-79
2023/06/22 04:08:26;;;;;;;;;14.60;14.60;;;;;;;;5059032;28;8865;-81
2023/06/22 04:10:54;;;;;;;;;13.40;13.40;;;;;;;;5048482;28;8870;-78
2023/06/22 04:13:21;;;;;;;;;19.25;17.75;;;;;;;;5049734;28;8989;-83
2023/06/22 04:15:48;;;;;;;;;14.75;13.75;;;;;;;;5065042;28;8853;-80
2023/06/22 04:18:16;;;;;;;;;19.75;18.50;;;;;;;;5049077;28;8876;-79
2023/06/22 04:20:46;;;;;;;;;19.40;18.40;;;;;;;;5056264;28;8993;-79
2023/06/22 04:23:15;;;;;;;;;18.50;18.50;;;;;;;;5049731;28;8853;-80
2023/06/22 04:25:42;;;;;;;;;23.00;17.00;;;;;;;;5061599;28;8835;-79
2023/06/22 04:28:12;;;;;;;;;18.50;17.25;;;;;;;;5062596;28;8977;-81
2023/06/22 04:30:46;;;;;;;;;18.50;16.50;;;;;;;;5055303;28;8760;-81
2023/06/22 04:33:14;;;;;;;;;14.40;14.40;;;;;;;;5055299;28;8970;-79
2023/06/22 04:35:42;;;;;;;;;20.50;17.00;;;;;;;;5054847;28;8854;-79
2023/06/22 04:38:15;;;;;;;;;25.00;21.25;;;;;;;;5062138;28;8866;-80
2023/06/22 04:40:42;;;;;;;;;20.25;16.75;;;;;;;;5049505;28;8857;-80
2023/06/22 04:43:10;;;;;;;;;21.50;18.25;;;;;;;;5061750;28;8866;-81
2023/06/22 04:45:37;;;;;;;;;21.00;19.25;;;;;;;;5056305;28;8857;-80
2023/06/22 04:48:05;;;;;;;;;16.00;16.00;;;;;;;;5068192;28;8851;-79
2023/06/22 04:50:33;;;;;;;;;17.80;17.00;;;;;;;;5059644;28;8879;-80
2023/06/22 04:53:00;;;;;;;;;23.00;19.75;;;;;;;;5048714;28;8872;-78
2023/06/22 04:55:28;;;;;;;;;17.50;17.50;;;;;;;;5052104;28;8946;-79
2023/06/22 04:58:04;;;;;;;;;21.75;17.50;;;;;;;;5049223;28;9024;-79
2023/06/22 05:00:32;;;;;;;;;15.75;15.25;;;;;;;;5047956;28;8788;-80
2023/06/22 05:03:00;;;;;;;;;18.20;18.20;;;;;;;;5049175;28;8984;-79
2023/06/22 05:05:27;;;;;;;;;24.50;20.00;;;;;;;;5048094;28;8843;-79
2023/06/22 05:08:00;;;;;;;;;19.80;18.00;;;;;;;;5051928;28;8885;-81
2023/06/22 05:10:29;;;;;;;;;16.80;16.20;;;;;;;;5051388;28;8867;-78
2023/06/22 05:12:56;;;;;;;;;24.00;22.00;;;;;;;;5051919;28;8888;-80
2023/06/22 05:15:30;;;;;;;;;18.75;18.75;;;;;;;;5053589;28;8872;-79
2023/06/22 05:17:58;;;;;;;;;24.25;22.25;;;;;;;;5046527;28;8870;-80
2023/06/22 05:20:28;;;;;;;;;23.00;22.00;;;;;;;;5050898;28;8865;-80
2023/06/22 05:22:55;;;;;;;;;20.25;18.75;;;;;;;;5055156;28;8857;-80
2023/06/22 05:25:22;;;;;;;;;20.50;20.50;;;;;;;;5052315;28;8841;-79
2023/06/22 05:27:51;;;;;;;;;21.75;21.00;;;;;;;;5047528;28;8875;-78
2023/06/22 05:30:19;;;;;;;;;22.50;19.25;;;;;;;;5067547;28;8880;-78
2023/06/22 05:32:46;;;;;;;;;19.75;19.75;;;;;;;;5051791;28;8842;-79
2023/06/22 05:35:13;;;;;;;;;21.25;19.75;;;;;;;;5048566;28;8845;-79
2023/06/22 05:37:40;;;;;;;;;18.25;18.25;;;;;;;;5059673;28;8837;-83
2023/06/22 05:40:09;;;;;;;;;17.75;16.75;;;;;;;;5048922;28;8850;-78
2023/06/22 05:42:37;;;;;;;;;20.75;20.50;;;;;;;;5048423;28;8857;-80
2023/06/22 05:45:06;;;;;;;;;22.75;21.25;;;;;;;;5048273;28;9597;-78
2023/06/22 05:47:34;;;;;;;;;23.00;23.00;;;;;;;;5047129;28;9758;-78
2023/06/22 05:50:01;;;;;;;;;25.00;25.00;;;;;;;;5049376;28;8861;-80
2023/06/22 05:52:30;;;;;;;;;20.25;20.25;;;;;;;;5052725;28;9753;-78
2023/06/22 05:54:57;;;;;;;;;20.75;20.75;;;;;;;;5056440;28;8858;-78
2023/06/22 05:57:27;;;;;;;;;21.50;21.25;;;;;;;;5049739;28;9754;-83
2023/06/22 05:59:55;;;;;;;;;21.75;21.25;;;;;;;;5048594;28;8974;-85
2023/06/22 06:02:25;;;;;;;;;20.75;20.75;;;;;;;;5048336;28;8786;-84
2023/06/22 06:04:52;;;;;;;;;17.75;17.75;;;;;;;;5049039;28;8861;-80
2023/06/22 06:07:20;;;;;;;;;24.75;24.25;;;;;;;;5048853;28;8903;-79
2023/06/22 06:09:47;;;;;;;;;22.75;22.00;;;;;;;;5049939;28;8881;-81
2023/06/22 06:12:18;;;;;;;;;23.75;23.75;;;;;;;;5051503;28;8861;-81
2023/06/22 06:14:48;;;;;;;;;17.00;17.00;;;;;;;;5055460;28;8879;-79
2023/06/22 06:17:15;;;;;;;;;25.50;19.75;;;;;;;;5057389;28;8882;-76
2023/06/22 06:19:44;;;;;;;;;21.75;20.00;;;;;;;;5050157;28;8972;-80
2023/06/22 06:22:11;;;;;;;;;20.25;19.25;;;;;;;;5049714;28;8861;-78
2023/06/22 06:24:39;;;;;;;;;21.75;21.75;;;;;;;;5054024;28;8858;-76
2023/06/22 06:27:06;;;;;;;;;22.00;21.00;;;;;;;;5055799;28;8892;-79
2023/06/22 06:29:34;;;;;;;;;20.00;20.00;;;;;;;;5052297;28;8872;-79
2023/06/22 06:32:01;;;;;;;;;25.00;23.75;;;;;;;;5054261;28;8798;-83
2023/06/22 06:34:31;;;;;;;;;27.00;22.75;;;;;;;;5054566;28;8935;-83
2023/06/22 06:37:01;;;;;;;;;23.25;21.75;;;;;;;;5054781;28;8873;-80
2023/06/22 06:39:28;;;;;;;;;27.00;22.50;;;;;;;;5055514;28;9624;-77
2023/06/22 06:41:56;;;;;;;;;18.75;18.25;;;;;;;;5057455;28;9781;-86
2023/06/22 06:44:26;;;;;;;;;20.25;20.25;;;;;;;;5058575;28;8845;-80
2023/06/22 06:47:10;;;;;;;;;24.00;22.50;;;;;;;;5066451;28;8835;-81
2023/06/22 06:49:38;;;;;;;;;19.75;19.75;;;;;;;;5054955;28;8862;-83
2023/06/22 06:52:12;;;;;;;;;21.50;20.00;;;;;;;;5055740;28;8865;-84
2023/06/22 06:54:41;;;;;;;;;23.00;21.50;;;;;;;;5055478;28;8850;-81
2023/06/22 06:57:13;;;;;;;;;23.00;21.25;;;;;;;;5053288;28;8880;-82
2023/06/22 06:59:41;;;;;;;;;13.25;12.25;;;;;;;;5064120;28;8858;-80
2023/06/22 07:02:08;;;;;;;;;20.75;20.00;;;;;;;;5052622;28;8864;-79
2023/06/22 07:04:36;;;;;;;;;24.25;22.75;;;;;;;;5054653;28;8885;-79
2023/06/22 07:07:05;;;;;;;;;29.00;24.00;;;;;;;;5055039;28;8868;-79
2023/06/22 07:09:34;;;;;;;;;25.25;22.25;;;;;;;;5059506;28;8866;-79
2023/06/22 07:12:03;;;;;;;;;20.75;20.75;;;;;;;;5056749;28;9008;-80
2023/06/22 07:14:34;;;;;;;;;13.75;12.75;;;;;;;;5058583;28;8849;-80
2023/06/22 07:17:01;;;;;;;;;13.50;13.25;;;;;;;;5055094;28;8987;-79
2023/06/22 07:19:31;;;;;;;;;21.25;19.25;;;;;;;;5059669;28;8881;-81
2023/06/22 07:22:02;;;;;;;;;19.00;19.00;;;;;;;;5053446;28;8881;-81
2023/06/22 07:24:30;;;;;;;;;20.00;20.00;;;;;;;;5055147;28;8861;-79
2023/06/22 07:27:00;;;;;;;;;17.75;17.00;;;;;;;;5058067;28;8977;-78
2023/06/22 07:29:27;;;;;;;;;24.00;22.50;;;;;;;;5061620;28;8854;-79
2023/06/22 07:31:56;;;;;;;;;16.50;16.50;;;;;;;;5051183;28;8793;-80
2023/06/22 07:34:23;;;;;;;;;22.00;20.25;;;;;;;;5045929;28;9651;-82
2023/06/22 07:36:51;;;;;;;;;20.00;19.00;;;;;;;;5055055;28;8977;-80
2023/06/22 07:39:19;;;;;;;;;26.00;22.75;;;;;;;;5047135;28;9040;-80
2023/06/22 07:41:47;;;;;;;;;19.50;18.00;;;;;;;;5060103;28;8858;-80
2023/06/22 07:44:16;;;;;;;;;18.25;18.25;;;;;;;;5056653;28;8964;-85
2023/06/22 07:46:43;;;;;;;;;21.00;19.00;;;;;;;;5051916;28;8850;-82
2023/06/22 07:49:11;;;;;;;;;18.50;18.50;;;;;;;;5050887;28;8853;-82
2023/06/22 07:51:38;;;;;;;;;21.25;20.25;;;;;;;;5060761;28;8943;-88
2023/06/22 07:54:06;;;;;;;;;22.75;21.00;;;;;;;;5064947;28;8978;-79
2023/06/22 07:56:33;;;;;;;;;21.50;17.50;;;;;;;;5052632;28;9525;-79
2023/06/22 07:59:03;;;;;;;;;17.25;16.75;;;;;;;;5060071;28;8877;-82
2023/06/22 08:01:32;;;;;;;;;18.25;18.25;;;;;;;;5052543;28;8806;-82
2023/06/22 08:04:01;;;;;;;;;20.25;18.50;;;;;;;;5052085;28;8931;-80
2023/06/22 08:06:29;;;;;;;;;19.00;19.00;;;;;;;;5050851;28;8896;-81
2023/06/22 08:08:56;;;;;;;;;18.00;16.00;;;;;;;;5051068;28;8869;-81
2023/06/22 08:11:25;;;;;;;;;20.25;19.50;;;;;;;;5051213;28;8900;-81
2023/06/22 08:13:55;;;;;;;;;18.25;17.25;;;;;;;;5050962;28;8884;-81
2023/06/22 08:16:23;;;;;;;;;20.75;19.50;;;;;;;;5055658;28;8854;-81
2023/06/22 08:18:51;;;;;;;;;19.50;19.50;;;;;;;;5057147;28;8873;-79
2023/06/22 08:21:19;;;;;;;;;15.00;15.00;;;;;;;;5051614;28;8869;-79
2023/06/22 08:23:46;;;;;;;;;25.00;20.25;;;;;;;;5052818;28;8873;-78
2023/06/22 08:26:13;;;;;;;;;20.50;20.50;;;;;;;;5043117;28;8842;-80
2023/06/22 08:28:40;;;;;;;;;23.75;22.00;;;;;;;;5064737;28;8889;-77
2023/06/22 08:31:08;;;;;;;;;22.50;18.75;;;;;;;;5066298;28;8826;-79
2023/06/22 08:33:35;;;;;;;;;18.75;17.75;;;;;;;;5058121;28;8868;-77
2023/06/22 08:36:08;;;;;;;;;22.25;19.50;;;;;;;;5050840;28;8989;-77
2023/06/22 08:38:35;;;;;;;;;20.00;20.00;;;;;;;;5064129;28;8863;-76
2023/06/22 08:41:02;;;;;;;;;25.00;24.25;;;;;;;;5069115;28;8851;-77
2023/06/22 08:43:30;;;;;;;;;23.00;21.00;;;;;;;;5053551;28;9002;-77
2023/06/22 08:45:57;;;;;;;;;18.50;17.50;;;;;;;;5048908;28;8841;-77
2023/06/22 08:48:24;;;;;;;;;20.75;20.75;;;;;;;;5050037;28;8849;-78
2023/06/22 08:50:52;;;;;;;;;24.25;22.50;;;;;;;;5058696;28;8888;-79
2023/06/22 08:53:22;;;;;;;;;22.25;21.00;;;;;;;;5052552;28;8830;-77
2023/06/22 08:55:50;;;;;;;;;20.50;20.50;;;;;;;;5049186;28;8913;-77
2023/06/22 08:58:18;;;;;;;;;18.50;16.00;;;;;;;;5052241;28;8850;-77
2023/06/22 09:00:45;;;;;;;;;24.50;22.25;;;;;;;;5057312;28;9184;-76
2023/06/22 09:03:12;;;;;;;;;23.00;22.00;;;;;;;;5049473;28;8846;-77
2023/06/22 09:05:40;;;;;;;;;23.75;22.00;;;;;;;;5049508;28;8865;-76
2023/06/22 09:08:07;;;;;;;;;22.00;21.50;;;;;;;;5049044;28;8864;-77
2023/06/22 09:10:35;;;;;;;;;24.25;23.25;;;;;;;;5048729;28;8877;-76
2023/06/22 09:13:03;;;;;;;;;20.25;20.00;;;;;;;;5049438;28;8873;-75
2023/06/22 09:15:30;;;;;;;;;24.75;23.25;;;;;;;;5048488;28;8857;-75
2023/06/22 09:17:58;;;;;;;;;22.25;21.50;;;;;;;;5049393;28;8841;-75
2023/06/22 09:20:27;;;;;;;;;21.50;21.50;;;;;;;;5050412;28;8861;-77
2023/06/22 09:22:54;;;;;;;;;25.00;22.75;;;;;;;;5039199;28;8846;-78
2023/06/22 09:25:22;;;;;;;;;19.25;17.00;;;;;;;;5051430;28;8881;-78
2023/06/22 09:27:50;;;;;;;;;26.00;25.00;;;;;;;;5069760;28;8952;-77
2023/06/22 09:30:18;;;;;;;;;23.50;20.25;;;;;;;;5066506;28;8851;-76
2023/06/22 09:32:45;;;;;;;;;23.50;21.75;;;;;;;;5059387;28;9335;-76
2023/06/22 09:35:13;;;;;;;;;24.75;21.50;;;;;;;;5048039;28;8881;-77
2023/06/22 09:37:40;;;;;;;;;22.25;22.25;;;;;;;;5056895;28;8839;-77
2023/06/22 09:40:12;;;;;;;;;28.00;28.00;;;;;;;;5054607;28;8849;-76
2023/06/22 09:42:40;;;;;;;;;25.75;22.75;;;;;;;;5058311;28;8960;-77
2023/06/22 09:45:10;;;;;;;;;23.75;22.75;;;;;;;;5051413;28;8835;-77
2023/06/22 09:47:38;;;;;;;;;32.25;27.25;;;;;;;;5068017;28;8838;-76
2023/06/22 09:50:05;;;;;;;;;28.50;25.75;;;;;;;;5063784;28;8845;-76
2023/06/22 09:52:33;;;;;;;;;29.50;28.25;;;;;;;;5049128;28;9741;-76
2023/06/22 09:55:00;;;;;;;;;27.00;25.00;;;;;;;;5051521;28;8903;-76
2023/06/22 09:57:27;;;;;;;;;28.00;28.00;;;;;;;;5050266;28;8846;-76
2023/06/22 09:59:54;;;;;;;;;31.50;30.00;;;;;;;;5064256;28;9624;-76
2023/06/22 10:02:23;;;;;;;;;34.50;30.25;;;;;;;;5052486;28;8822;-78
2023/06/22 10:04:50;;;;;;;;;32.00;30.25;;;;;;;;5051717;28;8966;-78
2023/06/22 10:07:18;;;;;;;;;30.50;29.25;;;;;;;;5058956;28;9681;-80
2023/06/22 10:09:45;;;;;;;;;34.50;29.50;;;;;;;;5055473;28;8865;-76
2023/06/22 10:12:12;;;;;;;;;31.50;29.00;;;;;;;;5058574;28;8851;-78
2023/06/22 10:14:39;;;;;;;;;31.00;29.75;;;;;;;;5048848;28;8876;-79
2023/06/22 10:17:08;;;;;;;;;33.50;28.75;;;;;;;;5060445;28;8853;-79
2023/06/22 10:19:37;;;;;;;;;37.75;33.25;;;;;;;;5058821;28;8872;-83
2023/06/22 10:22:05;;;;;;;;;28.50;28.50;;;;;;;;5048128;28;8869;-82
2023/06/22 10:24:32;;;;;;;;;26.75;25.75;;;;;;;;5047355;28;8879;-81
2023/06/22 10:26:59;;;;;;;;;36.25;32.25;;;;;;;;5056816;28;8913;-79
2023/06/22 10:29:27;;;;;;;;;30.75;28.75;;;;;;;;5053409;28;8972;-77
2023/06/22 10:31:54;;;;;;;;;25.25;25.25;;;;;;;;5059654;28;8886;-76
2023/06/22 10:34:21;;;;;;;;;26.00;25.75;;;;;;;;5051075;28;8884;-77
2023/06/22 10:36:50;;;;;;;;;26.25;26.00;;;;;;;;5052850;28;8969;-77
2023/06/22 10:39:17;;;;;;;;;32.25;30.50;;;;;;;;5058202;28;8858;-79
2023/06/22 10:41:45;;;;;;;;;26.00;26.00;;;;;;;;5052775;28;8926;-78
2023/06/22 10:44:12;;;;;;;;;31.00;29.50;;;;;;;;5047329;28;8838;-78
2023/06/22 10:46:39;;;;;;;;;32.25;29.25;;;;;;;;5063317;28;8872;-77
2023/06/22 10:49:06;;;;;;;;;33.50;30.00;;;;;;;;5050766;28;8869;-78
2023/06/22 10:51:34;;;;;;;;;31.00;26.75;;;;;;;;5050076;28;8980;-80
2023/06/22 10:54:04;;;;;;;;;29.75;28.50;;;;;;;;5043340;28;9624;-85
2023/06/22 10:56:33;;;;;;;;;32.00;29.50;;;;;;;;5053443;28;8889;-89
2023/06/22 10:59:01;;;;;;;;;21.40;21.40;;;;;;;;5050225;28;9146;-82
2023/06/22 11:01:31;;;;;;;;;26.00;26.00;;;;;;;;5063815;28;8802;-79
2023/06/22 11:03:58;;;;;;;;;29.75;27.75;;;;;;;;5049255;28;8883;-80
2023/06/22 11:06:25;;;;;;;;;30.25;28.00;;;;;;;;5049330;28;8868;-78
2023/06/22 11:08:52;;;;;;;;;31.25;29.25;;;;;;;;5048936;28;8850;-79
2023/06/22 11:11:21;;;;;;;;;26.50;24.50;;;;;;;;5052902;28;9597;-76
2023/06/22 11:13:48;;;;;;;;;24.50;24.50;;;;;;;;5063803;28;8854;-76
2023/06/22 11:16:16;;;;;;;;;25.25;25.25;;;;;;;;5052581;28;9012;-77
2023/06/22 11:18:43;;;;;;;;;28.00;28.00;;;;;;;;5051809;28;8988;-78
2023/06/22 11:21:10;;;;;;;;;25.00;25.00;;;;;;;;5052648;28;8849;-80
2023/06/22 11:23:38;;;;;;;;;18.00;18.00;;;;;;;;5052957;28;8877;-79
2023/06/22 11:26:05;;;;;;;;;25.80;22.80;;;;;;;;5064993;28;8876;-77
2023/06/22 11:28:34;;;;;;;;;27.00;24.80;;;;;;;;5053152;28;8988;-79
2023/06/22 11:31:01;;;;;;;;;23.60;23.60;;;;;;;;5049160;28;8841;-78
2023/06/22 11:33:29;;;;;;;;;28.40;22.20;;;;;;;;5059696;28;8877;-79
2023/06/22 11:35:57;;;;;;;;;25.60;23.40;;;;;;;;5055808;28;8850;-79
2023/06/22 11:38:24;;;;;;;;;23.20;22.20;;;;;;;;5070478;28;8884;-79
2023/06/22 11:40:53;;;;;;;;;19.80;19.80;;;;;;;;5062901;28;8996;-79
2023/06/22 11:43:22;;;;;;;;;21.00;21.00;;;;;;;;5054929;28;8875;-80
2023/06/22 11:45:53;;;;;;;;;20.60;19.60;;;;;;;;5062570;28;9140;-79
2023/06/22 11:48:20;;;;;;;;;25.20;25.20;;;;;;;;5063292;28;8986;-79
2023/06/22 11:50:47;;;;;;;;;20.40;19.80;;;;;;;;5050529;28;8842;-79
2023/06/22 11:53:16;;;;;;;;;20.00;20.00;;;;;;;;5050255;28;8861;-76
2023/06/22 11:55:43;;;;;;;;;20.80;20.00;;;;;;;;5050452;28;8854;-79
2023/06/22 11:58:11;;;;;;;;;18.00;18.00;;;;;;;;5047959;28;8849;-79
2023/06/22 12:00:39;;;;;;;;;20.00;19.80;;;;;;;;5041027;28;8843;-79
2023/06/22 12:03:07;;;;;;;;;18.80;18.80;;;;;;;;5050736;28;8838;-80
2023/06/22 12:05:34;;;;;;;;;20.80;20.80;;;;;;;;5050922;28;8892;-81
2023/06/22 12:08:02;;;;;;;;;14.80;14.80;;;;;;;;5051506;28;8851;-83
2023/06/22 12:10:29;;;;;;;;;18.20;16.40;;;;;;;;5051918;28;8853;-81
2023/06/22 12:12:57;;;;;;;;;24.80;21.80;;;;;;;;5054161;28;10708;-80
2023/06/22 12:15:25;;;;;;;;;20.20;20.20;;;;;;;;5052175;28;8853;-79
2023/06/22 12:17:52;;;;;;;;;18.40;18.40;;;;;;;;5053142;28;8997;-80
2023/06/22 12:20:20;;;;;;;;;22.80;21.00;;;;;;;;5052167;28;8856;-77
2023/06/22 12:22:51;;;;;;;;;18.80;18.00;;;;;;;;5054284;28;8983;-79
2023/06/22 12:25:18;;;;;;;;;17.20;16.00;;;;;;;;5055693;28;8871;-82
2023/06/22 12:27:45;;;;;;;;;18.80;18.80;;;;;;;;5047142;28;8841;-87
2023/06/22 12:30:13;;;;;;;;;15.80;14.80;;;;;;;;5056497;28;8992;-79
2023/06/22 12:32:40;;;;;;;;;18.20;17.00;;;;;;;;5055611;28;8829;-85
2023/06/22 12:35:13;;;;;;;;;16.00;15.40;;;;;;;;5050438;28;8873;-85
2023/06/22 12:37:42;;;;;;;;;11.20;11.00;;;;;;;;5053113;28;8865;-81
2023/06/22 12:40:13;;;;;;;;;17.00;17.00;;;;;;;;5055327;28;8821;-83
2023/06/22 12:42:41;;;;;;;;;16.40;16.40;;;;;;;;5053884;28;8867;-81
2023/06/22 12:45:15;;;;;;;;;18.00;16.40;;;;;;;;5055370;28;8872;-83
2023/06/22 12:47:43;;;;;;;;;14.00;14.00;;;;;;;;5052664;28;8878;-86
2023/06/22 12:50:10;;;;;;;;;15.20;15.20;;;;;;;;5059081;28;8842;-87
2023/06/22 12:52:40;;;;;;;;;11.60;11.60;;;;;;;;5054362;28;8861;-82
2023/06/22 12:55:12;;;;;;;;;15.00;12.60;;;;;;;;5057147;28;8855;-80
2023/06/22 12:57:42;;;;;;;;;16.20;16.20;;;;;;;;5049760;28;8967;-81
2023/06/22 13:00:13;;;;;;;;;17.60;17.60;;;;;;;;5055789;28;8851;-80
2023/06/22 13:02:40;;;;;;;;;16.00;14.80;;;;;;;;5068741;28;8896;-80
2023/06/22 13:05:10;;;;;;;;;17.40;17.40;;;;;;;;5051348;28;8861;-79
2023/06/22 13:07:37;;;;;;;;;13.80;13.80;;;;;;;;5052876;28;8849;-85
2023/06/22 13:10:05;;;;;;;;;16.80;15.00;;;;;;;;5052107;28;9540;-81
2023/06/22 13:12:34;;;;;;;;;16.00;14.20;;;;;;;;5052514;28;8877;-80
2023/06/22 13:15:02;;;;;;;;;15.80;15.80;;;;;;;;5057430;28;8846;-81
2023/06/22 13:17:30;;;;;;;;;11.80;11.80;;;;;;;;5054974;28;8942;-78
2023/06/22 13:19:57;;;;;;;;;14.80;14.80;;;;;;;;5058017;28;8868;-82
2023/06/22 13:22:29;;;;;;;;;17.80;16.20;;;;;;;;5067426;28;8990;-80
2023/06/22 13:24:57;;;;;;;;;15.80;15.80;;;;;;;;5049907;28;8872;-81
2023/06/22 13:27:24;;;;;;;;;18.00;17.80;;;;;;;;5054932;28;8958;-80
2023/06/22 13:29:54;;;;;;;;;16.40;16.40;;;;;;;;5051288;28;8853;-81
2023/06/22 13:32:21;;;;;;;;;21.20;21.20;;;;;;;;5064499;28;8841;-84
2023/06/22 13:34:48;;;;;;;;;16.00;16.00;;;;;;;;5058321;28;8843;-79
2023/06/22 13:37:15;;;;;;;;;15.40;15.40;;;;;;;;5059211;28;8877;-81
2023/06/22 13:39:43;;;;;;;;;15.80;15.80;;;;;;;;5055154;28;8875;-79
2023/06/22 13:42:10;;;;;;;;;15.00;15.00;;;;;;;;5055618;28;8865;-80
2023/06/22 13:44:37;;;;;;;;;15.60;15.60;;;;;;;;5052269;28;8827;-82
2023/06/22 13:47:07;;;;;;;;;10.80;10.80;;;;;;;;5064020;28;8942;-79
2023/06/22 13:49:34;;;;;;;;;18.40;17.00;;;;;;;;5060058;28;8978;-80
2023/06/22 13:52:03;;;;;;;;;23.80;21.20;;;;;;;;5057955;28;8870;-78
2023/06/22 13:54:30;;;;;;;;;19.80;18.00;;;;;;;;5060321;28;8928;-79
2023/06/22 13:56:57;;;;;;;;;16.20;16.20;;;;;;;;5049833;28;8849;-78
2023/06/22 13:59:26;;;;;;;;;15.80;13.20;;;;;;;;5048383;28;8972;-78
2023/06/22 14:01:53;;;;;;;;;26.60;26.60;;;;;;;;5043337;28;8841;-79
2023/06/22 14:04:24;;;;;;;;;16.80;16.80;;;;;;;;5049916;28;8985;-79
2023/06/22 14:06:51;;;;;;;;;17.00;17.00;;;;;;;;5041943;28;8868;-78
2023/06/22 14:09:18;;;;;;;;;15.60;15.20;;;;;;;;5060438;28;8835;-79
2023/06/22 14:11:45;;;;;;;;;20.00;20.00;;;;;;;;5047259;28;9146;-80
2023/06/22 14:14:12;;;;;;;;;19.20;19.20;;;;;;;;5054674;28;8855;-79
2023/06/22 14:16:40;;;;;;;;;24.00;24.00;;;;;;;;5059280;28;8839;-79
2023/06/22 14:19:07;;;;;;;;;20.40;19.80;;;;;;;;5058868;28;8834;-79
2023/06/22 14:21:36;;;;;;;;;23.60;22.80;;;;;;;;5064124;28;8900;-81
2023/06/22 14:24:03;;;;;;;;;22.20;18.80;;;;;;;;5062905;28;8863;-79
2023/06/22 14:26:30;;;;;;;;;22.20;21.00;;;;;;;;5056163;28;8856;-79
2023/06/22 14:28:58;;;;;;;;;15.80;15.80;;;;;;;;5058927;28;8880;-79
2023/06/22 14:31:25;;;;;;;;;16.80;16.40;;;;;;;;5059589;28;8894;-77
2023/06/22 14:33:52;;;;;;;;;20.00;19.00;;;;;;;;5059541;28;8958;-76
2023/06/22 14:36:20;;;;;;;;;20.80;19.60;;;;;;;;5059888;28;8869;-76
2023/06/22 14:38:48;;;;;;;;;16.00;16.00;;;;;;;;5060441;28;9610;-77
2023/06/22 14:41:17;;;;;;;;;18.00;18.00;;;;;;;;5064319;28;8867;-76